sensor_id;sensor_type;location;lat;lon;timestamp;temperature;humidity
48007;DHT22;33771;48.180;11.400;2023-04-06T00:03:34;-1.00;99.90
48007;DHT22;33771;48.180;11.400;2023-04-06T00:06:03;-1.00;99.90
48007;DHT22;33771;48.180;11.400;2023-04-06T00:08:33;-1.00;99.90
48007;DHT22;33771;48.180;11.400;2023-04-06T00:11:18;-1.00;99.90
48007;DHT22;33771;48.180;11.400;2023-04-06T00:13:47;-1.00;99.90
48007;DHT22;33771;48.180;11.400;2023-04-06T00:16:19;-1.00;99.90
48007;DHT22;33771;48.180;11.400;2023-04-06T00:19:17;-1.00;99.90
48007;DHT22;33771;48.180;11.400;2023-04-06T00:22:11;-1.10;99.90
48007;DHT22;33771;48.180;11.400;2023-04-06T00:24:49;-1.10;99.90
48007;DHT22;33771;48.180;11.400;2023-04-06T00:27:16;-1.10;99.90
48007;DHT22;33771;48.180;11.400;2023-04-06T00:29:49;-1.20;99.90
48007;DHT22;33771;48.180;11.400;2023-04-06T00:32:18;-1.10;99.90
48007;DHT22;33771;48.180;11.400;2023-04-06T00:35:15;-1.20;99.90
48007;DHT22;33771;48.180;11.400;2023-04-06T00:37:47;-1.20;99.90
48007;DHT22;33771;48.180;11.400;2023-04-06T00:40:16;-1.30;99.90
48007;DHT22;33771;48.180;11.400;2023-04-06T00:42:45;-1.30;99.90
48007;DHT22;33771;48.180;11.400;2023-04-06T00:45:17;-1.40;99.90
48007;DHT22;33771;48.180;11.400;2023-04-06T00:47:43;-1.40;99.90
48007;DHT22;33771;48.180;11.400;2023-04-06T00:50:09;-1.40;99.90
48007;DHT22;33771;48.180;11.400;2023-04-06T00:52:36;-1.40;99.90
48007;DHT22;33771;48.180;11.400;2023-04-06T00:55:03;-1.50;99.90
48007;DHT22;33771;48.180;11.400;2023-04-06T00:57:31;-1.50;99.90
48007;DHT22;33771;48.180;11.400;2023-04-06T00:59:57;-1.50;99.90
48007;DHT22;33771;48.180;11.400;2023-04-06T01:02:24;-1.50;99.90
48007;DHT22;33771;48.180;11.400;2023-04-06T02:35:05;-2.10;99.90
48007;DHT22;33771;48.180;11.400;2023-04-06T02:37:31;-2.10;99.90
48007;DHT22;33771;48.180;11.400;2023-04-06T02:39:58;-2.10;99.90
48007;DHT22;33771;48.180;11.400;2023-04-06T02:42:24;-2.10;99.90
48007;DHT22;33771;48.180;11.400;2023-04-06T02:44:50;-2.20;99.90
48007;DHT22;33771;48.180;11.400;2023-04-06T02:47:17;-2.20;99.90
48007;DHT22;33771;48.180;11.400;2023-04-06T02:49:43;-2.20;99.90
48007;DHT22;33771;48.180;11.400;2023-04-06T02:52:14;-2.20;99.90
48007;DHT22;33771;48.180;11.400;2023-04-06T02:54:40;-2.20;99.90
48007;DHT22;33771;48.180;11.400;2023-04-06T02:57:07;-2.20;99.90
48007;DHT22;33771;48.180;11.400;2023-04-06T02:59:33;-2.20;99.90
48007;DHT22;33771;48.180;11.400;2023-04-06T03:01:59;-2.20;99.90
48007;DHT22;33771;48.180;11.400;2023-04-06T03:04:26;-2.20;99.90
48007;DHT22;33771;48.180;11.400;2023-04-06T03:06:54;-2.30;99.90
48007;DHT22;33771;48.180;11.400;2023-04-06T03:09:20;-2.30;99.90
48007;DHT22;33771;48.180;11.400;2023-04-06T03:11:48;-2.40;99.90
48007;DHT22;33771;48.180;11.400;2023-04-06T03:14:14;-2.40;99.90
48007;DHT22;33771;48.180;11.400;2023-04-06T03:16:40;-2.40;99.90
48007;DHT22;33771;48.180;11.400;2023-04-06T03:19:06;-2.40;99.90
48007;DHT22;33771;48.180;11.400;2023-04-06T03:21:32;-2.50;99.90
48007;DHT22;33771;48.180;11.400;2023-04-06T03:23:58;-2.50;99.90
48007;DHT22;33771;48.180;11.400;2023-04-06T03:26:25;-2.50;99.90
48007;DHT22;33771;48.180;11.400;2023-04-06T03:28:51;-2.50;99.90
48007;DHT22;33771;48.180;11.400;2023-04-06T03:31:18;-2.50;99.90
48007;DHT22;33771;48.180;11.400;2023-04-06T03:33:44;-2.60;99.90
48007;DHT22;33771;48.180;11.400;2023-04-06T03:36:10;-2.60;99.90
48007;DHT22;33771;48.180;11.400;2023-04-06T03:38:36;-2.60;99.90
48007;DHT22;33771;48.180;11.400;2023-04-06T03:41:05;-2.60;99.90
48007;DHT22;33771;48.180;11.400;2023-04-06T03:43:31;-2.60;99.90
48007;DHT22;33771;48.180;11.400;2023-04-06T03:45:57;-2.60;99.90
48007;DHT22;33771;48.180;11.400;2023-04-06T03:48:23;-2.60;99.90
48007;DHT22;33771;48.180;11.400;2023-04-06T03:50:49;-2.60;99.90
48007;DHT22;33771;48.180;11.400;2023-04-06T03:53:15;-2.60;99.90
48007;DHT22;33771;48.180;11.400;2023-04-06T03:55:41;-2.60;99.90
48007;DHT22;33771;48.180;11.400;2023-04-06T03:58:08;-2.60;99.90
48007;DHT22;33771;48.180;11.400;2023-04-06T04:00:34;-2.60;99.90
48007;DHT22;33771;48.180;11.400;2023-04-06T04:03:01;-2.60;99.90
48007;DHT22;33771;48.180;11.400;2023-04-06T04:05:28;-2.60;99.90
48007;DHT22;33771;48.180;11.400;2023-04-06T04:07:54;-2.50;99.90
48007;DHT22;33771;48.180;11.400;2023-04-06T04:10:22;-2.50;99.90
48007;DHT22;33771;48.180;11.400;2023-04-06T04:12:48;-2.50;99.90
48007;DHT22;33771;48.180;11.400;2023-04-06T04:15:14;-2.50;99.90
48007;DHT22;33771;48.180;11.400;2023-04-06T04:17:40;-2.50;99.90
48007;DHT22;33771;48.180;11.400;2023-04-06T04:20:07;-2.50;99.90
48007;DHT22;33771;48.180;11.400;2023-04-06T04:22:33;-2.50;99.90
48007;DHT22;33771;48.180;11.400;2023-04-06T04:24:59;-2.50;99.90
48007;DHT22;33771;48.180;11.400;2023-04-06T04:27:25;-2.50;99.90
48007;DHT22;33771;48.180;11.400;2023-04-06T04:29:51;-2.50;99.90
48007;DHT22;33771;48.180;11.400;2023-04-06T04:32:17;-2.50;99.90
48007;DHT22;33771;48.180;11.400;2023-04-06T04:34:43;-2.60;99.90
48007;DHT22;33771;48.180;11.400;2023-04-06T04:37:09;-2.60;99.90
48007;DHT22;33771;48.180;11.400;2023-04-06T04:39:35;-2.60;99.90
48007;DHT22;33771;48.180;11.400;2023-04-06T04:42:01;-2.60;99.90
48007;DHT22;33771;48.180;11.400;2023-04-06T04:44:28;-2.70;99.90
48007;DHT22;33771;48.180;11.400;2023-04-06T04:46:53;-2.60;99.90
48007;DHT22;33771;48.180;11.400;2023-04-06T04:49:19;-2.70;99.90
48007;DHT22;33771;48.180;11.400;2023-04-06T04:51:46;-2.70;99.90
48007;DHT22;33771;48.180;11.400;2023-04-06T04:54:14;-2.60;99.90
48007;DHT22;33771;48.180;11.400;2023-04-06T04:56:42;-2.60;99.90
48007;DHT22;33771;48.180;11.400;2023-04-06T04:59:14;-2.60;99.90
48007;DHT22;33771;48.180;11.400;2023-04-06T05:01:41;-2.60;99.90
48007;DHT22;33771;48.180;11.400;2023-04-06T05:04:08;-2.60;99.90
48007;DHT22;33771;48.180;11.400;2023-04-06T05:06:34;-2.50;99.90
48007;DHT22;33771;48.180;11.400;2023-04-06T05:09:00;-2.50;99.90
48007;DHT22;33771;48.180;11.400;2023-04-06T05:11:26;-2.50;99.90
48007;DHT22;33771;48.180;11.400;2023-04-06T05:13:53;-2.40;99.90
48007;DHT22;33771;48.180;11.400;2023-04-06T05:16:19;-2.40;99.90
48007;DHT22;33771;48.180;11.400;2023-04-06T05:18:48;-2.40;99.90
48007;DHT22;33771;48.180;11.400;2023-04-06T05:21:14;-2.30;99.90
48007;DHT22;33771;48.180;11.400;2023-04-06T05:23:41;-2.20;99.90
48007;DHT22;33771;48.180;11.400;2023-04-06T05:26:06;-2.20;99.90
48007;DHT22;33771;48.180;11.400;2023-04-06T05:28:33;-2.10;99.90
48007;DHT22;33771;48.180;11.400;2023-04-06T05:31:02;-2.10;99.90
48007;DHT22;33771;48.180;11.400;2023-04-06T05:33:28;-1.90;99.90
48007;DHT22;33771;48.180;11.400;2023-04-06T05:35:56;-1.90;99.90
48007;DHT22;33771;48.180;11.400;2023-04-06T05:38:22;-1.90;99.90
48007;DHT22;33771;48.180;11.400;2023-04-06T05:40:48;-1.80;99.90
48007;DHT22;33771;48.180;11.400;2023-04-06T05:43:14;-1.70;99.90
48007;DHT22;33771;48.180;11.400;2023-04-06T05:45:41;-1.70;99.90
48007;DHT22;33771;48.180;11.400;2023-04-06T05:48:07;-1.70;99.90
48007;DHT22;33771;48.180;11.400;2023-04-06T05:50:33;-1.60;99.90
48007;DHT22;33771;48.180;11.400;2023-04-06T05:52:59;-1.60;99.90
48007;DHT22;33771;48.180;11.400;2023-04-06T05:55:25;-1.60;99.90
48007;DHT22;33771;48.180;11.400;2023-04-06T05:57:53;-1.50;99.90
48007;DHT22;33771;48.180;11.400;2023-04-06T06:00:19;-1.40;99.90
48007;DHT22;33771;48.180;11.400;2023-04-06T06:02:46;-1.30;99.90
48007;DHT22;33771;48.180;11.400;2023-04-06T06:05:12;-1.20;99.90
48007;DHT22;33771;48.180;11.400;2023-04-06T06:07:39;-1.10;99.90
48007;DHT22;33771;48.180;11.400;2023-04-06T06:10:05;-1.00;99.90
48007;DHT22;33771;48.180;11.400;2023-04-06T06:12:32;-0.90;99.90
48007;DHT22;33771;48.180;11.400;2023-04-06T06:14:59;-0.80;99.90
48007;DHT22;33771;48.180;11.400;2023-04-06T06:17:25;-0.70;99.90
48007;DHT22;33771;48.180;11.400;2023-04-06T06:19:51;-0.60;99.90
48007;DHT22;33771;48.180;11.400;2023-04-06T06:22:17;-0.40;99.90
48007;DHT22;33771;48.180;11.400;2023-04-06T06:24:43;-0.40;99.90
48007;DHT22;33771;48.180;11.400;2023-04-06T06:27:09;-0.20;99.90
48007;DHT22;33771;48.180;11.400;2023-04-06T06:29:35;-0.10;99.90
48007;DHT22;33771;48.180;11.400;2023-04-06T06:32:01;0.00;99.90
48007;DHT22;33771;48.180;11.400;2023-04-06T06:34:27;0.20;99.90
48007;DHT22;33771;48.180;11.400;2023-04-06T06:36:53;0.30;99.90
48007;DHT22;33771;48.180;11.400;2023-04-06T06:39:21;0.40;99.90
48007;DHT22;33771;48.180;11.400;2023-04-06T06:41:49;0.60;99.90
48007;DHT22;33771;48.180;11.400;2023-04-06T06:44:21;0.70;99.90
48007;DHT22;33771;48.180;11.400;2023-04-06T06:46:48;0.90;99.90
48007;DHT22;33771;48.180;11.400;2023-04-06T06:49:14;1.10;99.90
48007;DHT22;33771;48.180;11.400;2023-04-06T06:51:40;1.30;99.90
48007;DHT22;33771;48.180;11.400;2023-04-06T06:54:07;1.50;99.90
48007;DHT22;33771;48.180;11.400;2023-04-06T06:56:33;1.70;99.90
48007;DHT22;33771;48.180;11.400;2023-04-06T06:59:01;1.90;99.90
48007;DHT22;33771;48.180;11.400;2023-04-06T07:01:27;2.00;99.90
48007;DHT22;33771;48.180;11.400;2023-04-06T07:03:53;2.20;99.90
48007;DHT22;33771;48.180;11.400;2023-04-06T07:06:19;2.30;99.90
48007;DHT22;33771;48.180;11.400;2023-04-06T07:08:45;2.40;99.90
48007;DHT22;33771;48.180;11.400;2023-04-06T07:11:12;2.50;99.90
48007;DHT22;33771;48.180;11.400;2023-04-06T07:13:40;2.70;99.90
48007;DHT22;33771;48.180;11.400;2023-04-06T07:16:06;2.80;99.90
48007;DHT22;33771;48.180;11.400;2023-04-06T07:18:32;2.90;99.90
48007;DHT22;33771;48.180;11.400;2023-04-06T07:20:58;3.10;99.90
48007;DHT22;33771;48.180;11.400;2023-04-06T07:23:24;3.10;99.90
48007;DHT22;33771;48.180;11.400;2023-04-06T07:25:51;3.20;99.90
48007;DHT22;33771;48.180;11.400;2023-04-06T07:28:19;3.20;99.90
48007;DHT22;33771;48.180;11.400;2023-04-06T07:30:45;3.30;99.90
48007;DHT22;33771;48.180;11.400;2023-04-06T07:33:11;3.30;99.90
48007;DHT22;33771;48.180;11.400;2023-04-06T07:35:37;3.50;99.90
48007;DHT22;33771;48.180;11.400;2023-04-06T07:38:03;3.60;99.90
48007;DHT22;33771;48.180;11.400;2023-04-06T07:40:30;3.80;99.90
48007;DHT22;33771;48.180;11.400;2023-04-06T07:42:57;4.00;99.90
48007;DHT22;33771;48.180;11.400;2023-04-06T07:45:23;4.30;99.90
48007;DHT22;33771;48.180;11.400;2023-04-06T07:47:49;4.60;99.90
48007;DHT22;33771;48.180;11.400;2023-04-06T07:50:15;4.80;99.90
48007;DHT22;33771;48.180;11.400;2023-04-06T07:52:41;5.00;99.90
48007;DHT22;33771;48.180;11.400;2023-04-06T07:55:08;5.20;99.90
48007;DHT22;33771;48.180;11.400;2023-04-06T07:57:34;5.40;99.90
48007;DHT22;33771;48.180;11.400;2023-04-06T08:00:00;5.70;99.90
48007;DHT22;33771;48.180;11.400;2023-04-06T08:02:26;5.90;99.90
48007;DHT22;33771;48.180;11.400;2023-04-06T08:04:52;6.00;99.90
48007;DHT22;33771;48.180;11.400;2023-04-06T08:07:18;6.10;99.90
48007;DHT22;33771;48.180;11.400;2023-04-06T08:09:44;6.30;99.90
48007;DHT22;33771;48.180;11.400;2023-04-06T08:12:10;6.40;99.90
48007;DHT22;33771;48.180;11.400;2023-04-06T08:14:39;6.50;99.90
48007;DHT22;33771;48.180;11.400;2023-04-06T08:17:05;6.60;99.90
48007;DHT22;33771;48.180;11.400;2023-04-06T08:19:31;6.60;99.90
48007;DHT22;33771;48.180;11.400;2023-04-06T08:21:58;6.60;99.90
48007;DHT22;33771;48.180;11.400;2023-04-06T08:24:24;6.60;99.90
48007;DHT22;33771;48.180;11.400;2023-04-06T08:26:50;6.60;99.90
48007;DHT22;33771;48.180;11.400;2023-04-06T08:29:17;6.60;99.90
48007;DHT22;33771;48.180;11.400;2023-04-06T08:31:43;6.70;99.90
48007;DHT22;33771;48.180;11.400;2023-04-06T08:34:09;6.70;99.90
48007;DHT22;33771;48.180;11.400;2023-04-06T08:36:35;6.70;99.90
48007;DHT22;33771;48.180;11.400;2023-04-06T08:39:01;6.70;99.90
48007;DHT22;33771;48.180;11.400;2023-04-06T08:41:28;6.90;99.90
48007;DHT22;33771;48.180;11.400;2023-04-06T08:43:59;6.90;99.90
48007;DHT22;33771;48.180;11.400;2023-04-06T08:46:26;7.00;99.90
48007;DHT22;33771;48.180;11.400;2023-04-06T08:48:57;7.00;99.90
48007;DHT22;33771;48.180;11.400;2023-04-06T08:51:25;7.10;99.90
48007;DHT22;33771;48.180;11.400;2023-04-06T08:53:56;7.10;99.90
48007;DHT22;33771;48.180;11.400;2023-04-06T08:56:23;7.20;99.90
48007;DHT22;33771;48.180;11.400;2023-04-06T08:58:50;7.30;99.90
48007;DHT22;33771;48.180;11.400;2023-04-06T09:01:20;7.50;99.90
48007;DHT22;33771;48.180;11.400;2023-04-06T09:03:48;7.70;99.90
48007;DHT22;33771;48.180;11.400;2023-04-06T09:06:14;7.80;99.90
48007;DHT22;33771;48.180;11.400;2023-04-06T09:08:42;7.90;99.90
48007;DHT22;33771;48.180;11.400;2023-04-06T09:11:09;8.00;99.90
48007;DHT22;33771;48.180;11.400;2023-04-06T09:13:49;8.20;99.90
48007;DHT22;33771;48.180;11.400;2023-04-06T09:16:15;8.40;99.90
48007;DHT22;33771;48.180;11.400;2023-04-06T09:18:42;8.50;99.90
48007;DHT22;33771;48.180;11.400;2023-04-06T09:21:08;8.80;99.90
48007;DHT22;33771;48.180;11.400;2023-04-06T09:23:35;9.00;99.90
48007;DHT22;33771;48.180;11.400;2023-04-06T09:26:09;9.10;99.90
48007;DHT22;33771;48.180;11.400;2023-04-06T09:28:53;9.30;99.30
48007;DHT22;33771;48.180;11.400;2023-04-06T09:31:23;9.30;99.90
48007;DHT22;33771;48.180;11.400;2023-04-06T09:33:51;9.40;99.50
48007;DHT22;33771;48.180;11.400;2023-04-06T09:36:30;9.60;98.40
48007;DHT22;33771;48.180;11.400;2023-04-06T09:39:02;9.80;98.50
48007;DHT22;33771;48.180;11.400;2023-04-06T09:41:33;9.80;98.70
48007;DHT22;33771;48.180;11.400;2023-04-06T09:44:06;9.90;97.30
48007;DHT22;33771;48.180;11.400;2023-04-06T09:46:38;10.20;96.60
48007;DHT22;33771;48.180;11.400;2023-04-06T09:49:05;10.30;97.10
48007;DHT22;33771;48.180;11.400;2023-04-06T09:51:47;10.30;96.80
48007;DHT22;33771;48.180;11.400;2023-04-06T09:54:30;10.20;96.90
48007;DHT22;33771;48.180;11.400;2023-04-06T09:59:55;10.10;95.20
48007;DHT22;33771;48.180;11.400;2023-04-06T10:07:40;10.20;95.10
48007;DHT22;33771;48.180;11.400;2023-04-06T10:10:08;10.40;96.30
48007;DHT22;33771;48.180;11.400;2023-04-06T10:12:37;10.70;96.00
48007;DHT22;33771;48.180;11.400;2023-04-06T10:18:25;11.10;94.40
48007;DHT22;33771;48.180;11.400;2023-04-06T10:21:05;11.40;94.40
48007;DHT22;33771;48.180;11.400;2023-04-06T10:23:37;11.70;95.20
48007;DHT22;33771;48.180;11.400;2023-04-06T10:26:12;12.00;93.40
48007;DHT22;33771;48.180;11.400;2023-04-06T10:28:40;12.50;91.70
48007;DHT22;33771;48.180;11.400;2023-04-06T10:31:06;12.50;92.10
48007;DHT22;33771;48.180;11.400;2023-04-06T10:33:33;12.80;90.70
48007;DHT22;33771;48.180;11.400;2023-04-06T10:36:12;12.90;91.50
48007;DHT22;33771;48.180;11.400;2023-04-06T10:38:38;13.20;90.00
48007;DHT22;33771;48.180;11.400;2023-04-06T10:41:06;13.20;89.20
48007;DHT22;33771;48.180;11.400;2023-04-06T10:43:36;12.90;88.30
48007;DHT22;33771;48.180;11.400;2023-04-06T10:46:05;12.30;86.90
48007;DHT22;33771;48.180;11.400;2023-04-06T10:48:42;11.90;88.60
48007;DHT22;33771;48.180;11.400;2023-04-06T10:51:14;11.60;90.10
48007;DHT22;33771;48.180;11.400;2023-04-06T10:53:48;11.30;90.60
48007;DHT22;33771;48.180;11.400;2023-04-06T10:56:16;11.00;91.20
48007;DHT22;33771;48.180;11.400;2023-04-06T10:58:48;10.70;91.50
48007;DHT22;33771;48.180;11.400;2023-04-06T11:01:24;10.40;91.90
48007;DHT22;33771;48.180;11.400;2023-04-06T11:07:07;10.00;91.20
48007;DHT22;33771;48.180;11.400;2023-04-06T11:09:49;9.80;92.30
48007;DHT22;33771;48.180;11.400;2023-04-06T11:12:23;9.60;92.40
48007;DHT22;33771;48.180;11.400;2023-04-06T11:15:10;9.80;93.80
48007;DHT22;33771;48.180;11.400;2023-04-06T11:17:39;10.10;92.20
48007;DHT22;33771;48.180;11.400;2023-04-06T11:20:20;10.50;91.80
48007;DHT22;33771;48.180;11.400;2023-04-06T11:22:50;11.10;90.70
48007;DHT22;33771;48.180;11.400;2023-04-06T11:25:17;11.80;89.10
48007;DHT22;33771;48.180;11.400;2023-04-06T11:27:58;12.30;86.70
48007;DHT22;33771;48.180;11.400;2023-04-06T11:30:29;12.50;87.60
48007;DHT22;33771;48.180;11.400;2023-04-06T11:36:19;13.00;84.80
48007;DHT22;33771;48.180;11.400;2023-04-06T11:38:49;13.20;83.40
48007;DHT22;33771;48.180;11.400;2023-04-06T11:41:18;13.00;82.20
48007;DHT22;33771;48.180;11.400;2023-04-06T11:44:01;12.90;83.30
48007;DHT22;33771;48.180;11.400;2023-04-06T11:46:28;13.10;85.80
48007;DHT22;33771;48.180;11.400;2023-04-06T11:48:58;13.30;80.40
48007;DHT22;33771;48.180;11.400;2023-04-06T11:51:26;13.40;79.10
48007;DHT22;33771;48.180;11.400;2023-04-06T11:53:54;13.30;82.10
48007;DHT22;33771;48.180;11.400;2023-04-06T11:56:30;13.10;78.00
48007;DHT22;33771;48.180;11.400;2023-04-06T11:58:57;12.80;79.90
48007;DHT22;33771;48.180;11.400;2023-04-06T12:01:26;12.70;81.60
48007;DHT22;33771;48.180;11.400;2023-04-06T12:03:52;12.90;80.40
48007;DHT22;33771;48.180;11.400;2023-04-06T12:06:18;13.30;79.90
48007;DHT22;33771;48.180;11.400;2023-04-06T12:08:45;13.70;79.20
48007;DHT22;33771;48.180;11.400;2023-04-06T12:11:11;13.80;80.90
48007;DHT22;33771;48.180;11.400;2023-04-06T12:13:38;14.00;80.30
48007;DHT22;33771;48.180;11.400;2023-04-06T12:16:04;14.20;78.60
48007;DHT22;33771;48.180;11.400;2023-04-06T12:18:31;14.20;75.10
48007;DHT22;33771;48.180;11.400;2023-04-06T12:20:57;14.10;73.70
48007;DHT22;33771;48.180;11.400;2023-04-06T12:23:23;14.40;74.60
48007;DHT22;33771;48.180;11.400;2023-04-06T12:25:50;14.70;73.90
48007;DHT22;33771;48.180;11.400;2023-04-06T12:28:17;14.90;72.40
48007;DHT22;33771;48.180;11.400;2023-04-06T12:30:44;15.00;73.40
48007;DHT22;33771;48.180;11.400;2023-04-06T12:33:11;15.00;76.10
48007;DHT22;33771;48.180;11.400;2023-04-06T12:35:37;14.90;74.40
48007;DHT22;33771;48.180;11.400;2023-04-06T12:38:04;15.10;73.80
48007;DHT22;33771;48.180;11.400;2023-04-06T12:40:30;14.90;74.50
48007;DHT22;33771;48.180;11.400;2023-04-06T12:42:56;14.50;75.20
48007;DHT22;33771;48.180;11.400;2023-04-06T12:48:44;14.20;75.00
48007;DHT22;33771;48.180;11.400;2023-04-06T12:51:10;14.00;72.30
48007;DHT22;33771;48.180;11.400;2023-04-06T12:53:37;13.50;74.20
48007;DHT22;33771;48.180;11.400;2023-04-06T12:56:16;13.00;78.20
48007;DHT22;33771;48.180;11.400;2023-04-06T12:58:44;12.60;76.00
48007;DHT22;33771;48.180;11.400;2023-04-06T13:01:11;12.30;78.60
48007;DHT22;33771;48.180;11.400;2023-04-06T13:03:39;12.10;79.30
48007;DHT22;33771;48.180;11.400;2023-04-06T13:06:06;12.40;79.10
48007;DHT22;33771;48.180;11.400;2023-04-06T13:08:42;12.90;78.00
48007;DHT22;33771;48.180;11.400;2023-04-06T13:11:08;13.10;77.50
48007;DHT22;33771;48.180;11.400;2023-04-06T13:13:35;13.10;78.10
48007;DHT22;33771;48.180;11.400;2023-04-06T13:16:07;12.70;79.00
48007;DHT22;33771;48.180;11.400;2023-04-06T13:18:34;12.40;79.30
48007;DHT22;33771;48.180;11.400;2023-04-06T13:21:02;12.10;78.30
48007;DHT22;33771;48.180;11.400;2023-04-06T13:23:28;11.90;82.70
48007;DHT22;33771;48.180;11.400;2023-04-06T13:26:05;11.80;83.50
48007;DHT22;33771;48.180;11.400;2023-04-06T13:28:33;12.10;83.80
48007;DHT22;33771;48.180;11.400;2023-04-06T13:31:01;12.50;82.20
48007;DHT22;33771;48.180;11.400;2023-04-06T13:33:28;13.00;81.40
48007;DHT22;33771;48.180;11.400;2023-04-06T13:35:54;13.50;79.60
48007;DHT22;33771;48.180;11.400;2023-04-06T13:38:20;13.80;76.40
48007;DHT22;33771;48.180;11.400;2023-04-06T13:40:46;14.10;75.90
48007;DHT22;33771;48.180;11.400;2023-04-06T13:43:12;14.30;75.60
48007;DHT22;33771;48.180;11.400;2023-04-06T13:45:38;14.60;71.80
48007;DHT22;33771;48.180;11.400;2023-04-06T13:48:04;14.60;74.40
48007;DHT22;33771;48.180;11.400;2023-04-06T13:50:30;14.30;74.70
48007;DHT22;33771;48.180;11.400;2023-04-06T13:52:56;13.80;74.00
48007;DHT22;33771;48.180;11.400;2023-04-06T13:55:22;13.30;73.70
48007;DHT22;33771;48.180;11.400;2023-04-06T13:57:51;12.90;74.50
48007;DHT22;33771;48.180;11.400;2023-04-06T14:00:17;12.60;76.00
48007;DHT22;33771;48.180;11.400;2023-04-06T14:02:44;12.30;74.50
48007;DHT22;33771;48.180;11.400;2023-04-06T14:05:10;12.20;76.40
48007;DHT22;33771;48.180;11.400;2023-04-06T14:07:37;12.60;75.90
48007;DHT22;33771;48.180;11.400;2023-04-06T14:10:03;12.80;76.00
48007;DHT22;33771;48.180;11.400;2023-04-06T14:12:29;12.80;76.30
48007;DHT22;33771;48.180;11.400;2023-04-06T14:14:57;12.70;76.70
48007;DHT22;33771;48.180;11.400;2023-04-06T14:17:23;12.50;75.60
48007;DHT22;33771;48.180;11.400;2023-04-06T14:19:50;12.30;79.20
48007;DHT22;33771;48.180;11.400;2023-04-06T14:22:17;12.30;77.10
48007;DHT22;33771;48.180;11.400;2023-04-06T14:24:43;12.30;77.10
48007;DHT22;33771;48.180;11.400;2023-04-06T14:27:09;12.60;75.40
48007;DHT22;33771;48.180;11.400;2023-04-06T14:29:35;12.90;75.10
48007;DHT22;33771;48.180;11.400;2023-04-06T14:32:01;13.30;75.10
48007;DHT22;33771;48.180;11.400;2023-04-06T14:34:27;13.60;74.90
48007;DHT22;33771;48.180;11.400;2023-04-06T14:36:53;13.90;74.60
48007;DHT22;33771;48.180;11.400;2023-04-06T14:39:18;13.90;72.80
48007;DHT22;33771;48.180;11.400;2023-04-06T14:41:44;14.00;71.90
48007;DHT22;33771;48.180;11.400;2023-04-06T14:44:16;14.10;71.20
48007;DHT22;33771;48.180;11.400;2023-04-06T14:46:42;14.30;71.40
48007;DHT22;33771;48.180;11.400;2023-04-06T14:49:08;14.30;70.50
48007;DHT22;33771;48.180;11.400;2023-04-06T14:51:34;14.40;69.00
48007;DHT22;33771;48.180;11.400;2023-04-06T14:54:01;14.30;68.40
48007;DHT22;33771;48.180;11.400;2023-04-06T14:56:30;14.20;67.20
48007;DHT22;33771;48.180;11.400;2023-04-06T14:59:00;14.10;66.40
48007;DHT22;33771;48.180;11.400;2023-04-06T15:01:27;14.00;68.10
48007;DHT22;33771;48.180;11.400;2023-04-06T15:03:53;14.00;67.60
48007;DHT22;33771;48.180;11.400;2023-04-06T15:06:19;13.90;68.30
48007;DHT22;33771;48.180;11.400;2023-04-06T15:08:46;13.70;66.20
48007;DHT22;33771;48.180;11.400;2023-04-06T15:11:13;13.50;68.70
48007;DHT22;33771;48.180;11.400;2023-04-06T15:13:39;13.30;68.60
48007;DHT22;33771;48.180;11.400;2023-04-06T15:16:06;13.20;68.00
48007;DHT22;33771;48.180;11.400;2023-04-06T15:18:33;13.10;70.50
48007;DHT22;33771;48.180;11.400;2023-04-06T15:21:00;13.20;72.80
48007;DHT22;33771;48.180;11.400;2023-04-06T15:23:27;13.20;72.10
48007;DHT22;33771;48.180;11.400;2023-04-06T15:25:56;13.00;74.00
48007;DHT22;33771;48.180;11.400;2023-04-06T15:28:23;12.70;74.00
48007;DHT22;33771;48.180;11.400;2023-04-06T15:30:49;12.70;73.00
48007;DHT22;33771;48.180;11.400;2023-04-06T15:33:15;12.70;72.80
48007;DHT22;33771;48.180;11.400;2023-04-06T15:35:41;12.70;73.80
48007;DHT22;33771;48.180;11.400;2023-04-06T15:38:10;12.60;73.20
48007;DHT22;33771;48.180;11.400;2023-04-06T15:40:47;12.70;71.30
48007;DHT22;33771;48.180;11.400;2023-04-06T15:43:13;12.60;73.70
48007;DHT22;33771;48.180;11.400;2023-04-06T15:45:40;12.70;71.70
48007;DHT22;33771;48.180;11.400;2023-04-06T15:48:07;12.60;73.10
48007;DHT22;33771;48.180;11.400;2023-04-06T15:50:34;12.70;71.00
48007;DHT22;33771;48.180;11.400;2023-04-06T15:53:00;12.70;69.70
48007;DHT22;33771;48.180;11.400;2023-04-06T15:55:26;12.70;69.30
48007;DHT22;33771;48.180;11.400;2023-04-06T15:57:52;12.60;71.40
48007;DHT22;33771;48.180;11.400;2023-04-06T16:00:18;12.60;71.90
48007;DHT22;33771;48.180;11.400;2023-04-06T16:02:45;12.50;71.80
48007;DHT22;33771;48.180;11.400;2023-04-06T16:05:11;12.40;70.40
48007;DHT22;33771;48.180;11.400;2023-04-06T16:07:37;12.10;72.00
48007;DHT22;33771;48.180;11.400;2023-04-06T16:10:04;11.90;75.20
48007;DHT22;33771;48.180;11.400;2023-04-06T16:12:32;11.70;73.80
48007;DHT22;33771;48.180;11.400;2023-04-06T16:15:04;11.70;74.80
48007;DHT22;33771;48.180;11.400;2023-04-06T16:17:30;11.60;75.30
48007;DHT22;33771;48.180;11.400;2023-04-06T16:19:59;11.70;74.50
48007;DHT22;33771;48.180;11.400;2023-04-06T16:22:29;11.70;73.20
48007;DHT22;33771;48.180;11.400;2023-04-06T16:25:02;11.60;72.30
48007;DHT22;33771;48.180;11.400;2023-04-06T16:27:30;11.50;73.80
48007;DHT22;33771;48.180;11.400;2023-04-06T16:30:01;11.50;72.20
48007;DHT22;33771;48.180;11.400;2023-04-06T16:32:32;11.40;73.40
48007;DHT22;33771;48.180;11.400;2023-04-06T16:35:03;11.40;73.20
48007;DHT22;33771;48.180;11.400;2023-04-06T16:37:32;11.30;73.10
48007;DHT22;33771;48.180;11.400;2023-04-06T16:40:03;11.20;73.80
48007;DHT22;33771;48.180;11.400;2023-04-06T16:42:30;11.10;75.10
48007;DHT22;33771;48.180;11.400;2023-04-06T16:45:03;11.10;75.40
48007;DHT22;33771;48.180;11.400;2023-04-06T16:47:29;11.00;76.50
48007;DHT22;33771;48.180;11.400;2023-04-06T16:49:56;10.90;75.30
48007;DHT22;33771;48.180;11.400;2023-04-06T16:52:33;10.80;77.20
48007;DHT22;33771;48.180;11.400;2023-04-06T16:55:01;10.60;76.50
48007;DHT22;33771;48.180;11.400;2023-04-06T16:57:34;10.50;77.20
48007;DHT22;33771;48.180;11.400;2023-04-06T17:00:02;10.40;77.30
48007;DHT22;33771;48.180;11.400;2023-04-06T17:02:30;10.30;77.70
48007;DHT22;33771;48.180;11.400;2023-04-06T17:04:57;10.20;77.90
48007;DHT22;33771;48.180;11.400;2023-04-06T17:07:23;10.10;77.30
48007;DHT22;33771;48.180;11.400;2023-04-06T17:09:55;10.00;78.30
48007;DHT22;33771;48.180;11.400;2023-04-06T17:12:22;9.80;78.80
48007;DHT22;33771;48.180;11.400;2023-04-06T17:14:51;9.70;79.60
48007;DHT22;33771;48.180;11.400;2023-04-06T17:17:27;9.60;80.10
48007;DHT22;33771;48.180;11.400;2023-04-06T17:19:57;9.40;80.80